CTN211 LDSP-LDRI
Flight info
| Callsign | CTN211 |
|---|---|
| Flight time | 0h 31m |
| Altitude | 20000 |
| Route | ZDA L868 KULEN |
| Aircraft | A319/M-SDE3FGHIRWY/LB1 |
Departure
| Time | 2026-04-26 17:15 |
|---|---|
| Airport | Split Saint Jerome Airport (LDSP) |
Arrival
| Time | 2026-04-26 17:47 |
|---|---|
| Airport | Rijeka Airport (LDRI) |
| Time | Latitude | Longitude | Altitude | Speed | Heading |
|---|---|---|---|---|---|
| 2026-04-26 17:02 | 43.53543 | 16.29738 | 68 ft | 0 kts | 102° |
| 2026-04-26 17:11 | 43.53543 | 16.29741 | 68 ft | 0 kts | 102° |
| 2026-04-26 17:11 | 43.53532 | 16.29753 | 62 ft | 4 kts | 151° |
| 2026-04-26 17:11 | 43.53520 | 16.29704 | 66 ft | 9 kts | 291° |
| 2026-04-26 17:12 | 43.53658 | 16.29584 | 66 ft | 16 kts | 343° |
| 2026-04-26 17:12 | 43.53692 | 16.29478 | 81 ft | 15 kts | 261° |
| 2026-04-26 17:13 | 43.53493 | 16.29081 | 88 ft | 26 kts | 232° |
| 2026-04-26 17:13 | 43.53378 | 16.28872 | 87 ft | 29 kts | 232° |
| 2026-04-26 17:13 | 43.53192 | 16.28563 | 83 ft | 8 kts | 284° |
| 2026-04-26 17:14 | 43.53212 | 16.28568 | 85 ft | 3 kts | 43° |
| 2026-04-26 17:14 | 43.53504 | 16.29092 | 87 ft | 101 kts | 52° |
| 2026-04-26 17:14 | 43.54066 | 16.30095 | 130 ft | 154 kts | 54° |
| 2026-04-26 17:15 | 43.55408 | 16.32558 | 1267 ft | 176 kts | 59° |
| 2026-04-26 17:15 | 43.55685 | 16.34186 | 1847 ft | 182 kts | 95° |
| 2026-04-26 17:15 | 43.55223 | 16.35816 | 2454 ft | 191 kts | 129° |
| 2026-04-26 17:16 | 43.54072 | 16.36815 | 2939 ft | 207 kts | 167° |
| 2026-04-26 17:16 | 43.52590 | 16.37199 | 3479 ft | 228 kts | 162° |
| 2026-04-26 17:16 | 43.51062 | 16.38099 | 3989 ft | 251 kts | 154° |
| 2026-04-26 17:16 | 43.49421 | 16.39228 | 4506 ft | 277 kts | 152° |
| 2026-04-26 17:17 | 43.47628 | 16.40484 | 5005 ft | 302 kts | 156° |
| 2026-04-26 17:17 | 43.45502 | 16.40967 | 5520 ft | 324 kts | 186° |
| 2026-04-26 17:17 | 43.43368 | 16.39881 | 6217 ft | 335 kts | 216° |
| 2026-04-26 17:17 | 43.41779 | 16.37540 | 7059 ft | 338 kts | 237° |
| 2026-04-26 17:18 | 43.40608 | 16.34719 | 7958 ft | 341 kts | 245° |
| 2026-04-26 17:18 | 43.39826 | 16.31643 | 8837 ft | 343 kts | 262° |
| 2026-04-26 17:18 | 43.39820 | 16.28367 | 9724 ft | 345 kts | 282° |
| 2026-04-26 17:18 | 43.40645 | 16.25284 | 10534 ft | 346 kts | 302° |
| 2026-04-26 17:19 | 43.44332 | 16.21138 | 12116 ft | 351 kts | 337° |
| 2026-04-26 17:19 | 43.46581 | 16.19783 | 12915 ft | 355 kts | 337° |
| 2026-04-26 17:19 | 43.48852 | 16.18416 | 13690 ft | 359 kts | 336° |
| 2026-04-26 17:20 | 43.51158 | 16.17025 | 14375 ft | 363 kts | 336° |
| 2026-04-26 17:20 | 43.52695 | 16.16093 | 14832 ft | 366 kts | 336° |
| 2026-04-26 17:20 | 43.55829 | 16.14186 | 15751 ft | 370 kts | 336° |
| 2026-04-26 17:20 | 43.58194 | 16.12744 | 16427 ft | 374 kts | 336° |
| 2026-04-26 17:21 | 43.60585 | 16.11286 | 17097 ft | 377 kts | 336° |
| 2026-04-26 17:21 | 43.63004 | 16.09807 | 17753 ft | 382 kts | 336° |
| 2026-04-26 17:21 | 43.65451 | 16.08309 | 18400 ft | 386 kts | 336° |
| 2026-04-26 17:21 | 43.67917 | 16.06800 | 18999 ft | 389 kts | 336° |
| 2026-04-26 17:22 | 43.70410 | 16.05275 | 19413 ft | 398 kts | 336° |
| 2026-04-26 17:22 | 43.72977 | 16.03699 | 19700 ft | 409 kts | 336° |
| 2026-04-26 17:22 | 43.75606 | 16.02085 | 19982 ft | 418 kts | 336° |
| 2026-04-26 17:22 | 43.78307 | 16.00431 | 20070 ft | 431 kts | 336° |
| 2026-04-26 17:23 | 43.81095 | 15.98724 | 20082 ft | 444 kts | 336° |
| 2026-04-26 17:23 | 43.83955 | 15.96969 | 20081 ft | 453 kts | 336° |
| 2026-04-26 17:23 | 43.86848 | 15.95190 | 20084 ft | 456 kts | 336° |
| 2026-04-26 17:23 | 43.89716 | 15.93424 | 20082 ft | 458 kts | 336° |
| 2026-04-26 17:24 | 43.92633 | 15.91626 | 20081 ft | 459 kts | 336° |
| 2026-04-26 17:24 | 43.95547 | 15.89828 | 20082 ft | 459 kts | 337° |
| 2026-04-26 17:24 | 43.98463 | 15.88024 | 20081 ft | 459 kts | 337° |
| 2026-04-26 17:24 | 44.01417 | 15.86194 | 20081 ft | 459 kts | 337° |
| 2026-04-26 17:25 | 44.04295 | 15.84410 | 20083 ft | 459 kts | 336° |
| 2026-04-26 17:25 | 44.07212 | 15.82601 | 20084 ft | 459 kts | 336° |
| 2026-04-26 17:25 | 44.10131 | 15.80790 | 20084 ft | 459 kts | 336° |
| 2026-04-26 17:25 | 44.13049 | 15.78978 | 20085 ft | 459 kts | 336° |
| 2026-04-26 17:26 | 44.16004 | 15.77138 | 20085 ft | 459 kts | 336° |
| 2026-04-26 17:26 | 44.18923 | 15.75323 | 20085 ft | 459 kts | 336° |
| 2026-04-26 17:26 | 44.21797 | 15.73531 | 20086 ft | 459 kts | 336° |
| 2026-04-26 17:26 | 44.24712 | 15.71709 | 20085 ft | 459 kts | 336° |
| 2026-04-26 17:27 | 44.27632 | 15.69880 | 20085 ft | 459 kts | 336° |
| 2026-04-26 17:27 | 44.30547 | 15.68057 | 20098 ft | 459 kts | 337° |
| 2026-04-26 17:27 | 44.33463 | 15.66234 | 20100 ft | 459 kts | 336° |
| 2026-04-26 17:27 | 44.36375 | 15.64412 | 20100 ft | 458 kts | 336° |
| 2026-04-26 17:28 | 44.39285 | 15.62591 | 20101 ft | 459 kts | 336° |
| 2026-04-26 17:28 | 44.42196 | 15.60762 | 20103 ft | 458 kts | 336° |
| 2026-04-26 17:28 | 44.45106 | 15.58929 | 20103 ft | 458 kts | 336° |
| 2026-04-26 17:28 | 44.48011 | 15.57095 | 20110 ft | 458 kts | 336° |
| 2026-04-26 17:29 | 44.50915 | 15.55260 | 20101 ft | 458 kts | 336° |
| 2026-04-26 17:29 | 44.52880 | 15.54018 | 20101 ft | 458 kts | 336° |
| 2026-04-26 17:29 | 44.56736 | 15.51583 | 20097 ft | 458 kts | 336° |
| 2026-04-26 17:29 | 44.59652 | 15.49745 | 20095 ft | 458 kts | 336° |
| 2026-04-26 17:30 | 44.62559 | 15.47910 | 20098 ft | 458 kts | 336° |
| 2026-04-26 17:30 | 44.65465 | 15.46070 | 20104 ft | 458 kts | 336° |
| 2026-04-26 17:30 | 44.68374 | 15.44224 | 20101 ft | 458 kts | 336° |
| 2026-04-26 17:30 | 44.71279 | 15.42378 | 20100 ft | 458 kts | 336° |
| 2026-04-26 17:31 | 44.74189 | 15.40530 | 20110 ft | 458 kts | 336° |
| 2026-04-26 17:31 | 44.77093 | 15.38681 | 20116 ft | 458 kts | 336° |
| 2026-04-26 17:31 | 44.79994 | 15.36831 | 19999 ft | 456 kts | 336° |
| 2026-04-26 17:31 | 44.82853 | 15.35008 | 19528 ft | 445 kts | 335° |
| 2026-04-26 17:32 | 44.85612 | 15.33246 | 19090 ft | 437 kts | 336° |
| 2026-04-26 17:32 | 44.88366 | 15.31482 | 18644 ft | 433 kts | 336° |
| 2026-04-26 17:32 | 44.91097 | 15.29730 | 18176 ft | 430 kts | 336° |
| 2026-04-26 17:32 | 44.93809 | 15.27989 | 17676 ft | 427 kts | 336° |
| 2026-04-26 17:33 | 44.96500 | 15.26262 | 17231 ft | 423 kts | 336° |
| 2026-04-26 17:33 | 44.99170 | 15.24551 | 16850 ft | 421 kts | 335° |
| 2026-04-26 17:33 | 45.01829 | 15.22845 | 16468 ft | 418 kts | 335° |
| 2026-04-26 17:34 | 45.07092 | 15.19459 | 15715 ft | 413 kts | 335° |
| 2026-04-26 17:34 | 45.09698 | 15.17778 | 15313 ft | 411 kts | 335° |
| 2026-04-26 17:34 | 45.12259 | 15.16053 | 14920 ft | 404 kts | 331° |
| 2026-04-26 17:34 | 45.14580 | 15.13824 | 14536 ft | 402 kts | 321° |
| 2026-04-26 17:35 | 45.16564 | 15.11051 | 14160 ft | 399 kts | 309° |
| 2026-04-26 17:35 | 45.18153 | 15.07848 | 13765 ft | 395 kts | 300° |
| 2026-04-26 17:35 | 45.19346 | 15.04352 | 13342 ft | 393 kts | 294° |
| 2026-04-26 17:35 | 45.20446 | 15.00815 | 12925 ft | 392 kts | 294° |
| 2026-04-26 17:36 | 45.21552 | 14.97262 | 12522 ft | 395 kts | 294° |
| 2026-04-26 17:36 | 45.22661 | 14.93694 | 12135 ft | 395 kts | 294° |
| 2026-04-26 17:36 | 45.23770 | 14.90119 | 11759 ft | 394 kts | 294° |
| 2026-04-26 17:36 | 45.24863 | 14.86588 | 11378 ft | 390 kts | 294° |
| 2026-04-26 17:37 | 45.25947 | 14.83082 | 11009 ft | 385 kts | 294° |
| 2026-04-26 17:37 | 45.27021 | 14.79611 | 10640 ft | 384 kts | 294° |
| 2026-04-26 17:37 | 45.28097 | 14.76126 | 10279 ft | 387 kts | 294° |
| 2026-04-26 17:38 | 45.30197 | 14.69308 | 9375 ft | 365 kts | 294° |
| 2026-04-26 17:38 | 45.31205 | 14.66018 | 8908 ft | 362 kts | 293° |
| 2026-04-26 17:38 | 45.32208 | 14.62745 | 8447 ft | 361 kts | 293° |
| 2026-04-26 17:38 | 45.33207 | 14.59480 | 7996 ft | 360 kts | 293° |
| 2026-04-26 17:39 | 45.34203 | 14.56221 | 7549 ft | 359 kts | 293° |
| 2026-04-26 17:39 | 45.35449 | 14.53168 | 7109 ft | 358 kts | 309° |
| 2026-04-26 17:39 | 45.37264 | 14.50761 | 6691 ft | 356 kts | 321° |
| 2026-04-26 17:39 | 45.39157 | 14.48590 | 6313 ft | 346 kts | 321° |
| 2026-04-26 17:40 | 45.41021 | 14.46447 | 5945 ft | 343 kts | 321° |
| 2026-04-26 17:40 | 45.41623 | 14.45755 | 5823 ft | 343 kts | 321° |
| 2026-04-26 17:40 | 45.44410 | 14.41910 | 5205 ft | 327 kts | 298° |
| 2026-04-26 17:40 | 45.44972 | 14.38867 | 4838 ft | 315 kts | 268° |
| 2026-04-26 17:41 | 45.44406 | 14.35960 | 4487 ft | 302 kts | 237° |
| 2026-04-26 17:41 | 45.42916 | 14.33985 | 4159 ft | 289 kts | 205° |
| 2026-04-26 17:41 | 45.41005 | 14.33502 | 3832 ft | 278 kts | 172° |
| 2026-04-26 17:41 | 45.39298 | 14.34595 | 3512 ft | 268 kts | 136° |
| 2026-04-26 17:42 | 45.38341 | 14.36751 | 3409 ft | 252 kts | 113° |
| 2026-04-26 17:42 | 45.37666 | 14.38943 | 3410 ft | 233 kts | 113° |
| 2026-04-26 17:42 | 45.36889 | 14.40857 | 3411 ft | 216 kts | 130° |
| 2026-04-26 17:42 | 45.35820 | 14.42270 | 3354 ft | 206 kts | 141° |
| 2026-04-26 17:43 | 45.34685 | 14.43495 | 3141 ft | 204 kts | 143° |
| 2026-04-26 17:43 | 45.33544 | 14.44689 | 2900 ft | 202 kts | 143° |
| 2026-04-26 17:43 | 45.32431 | 14.45851 | 2659 ft | 196 kts | 141° |
| 2026-04-26 17:43 | 45.31353 | 14.46977 | 2386 ft | 188 kts | 141° |
| 2026-04-26 17:44 | 45.30341 | 14.48032 | 2144 ft | 170 kts | 142° |
| 2026-04-26 17:44 | 45.29442 | 14.48970 | 1918 ft | 152 kts | 141° |
| 2026-04-26 17:44 | 45.28630 | 14.49818 | 1720 ft | 139 kts | 141° |
| 2026-04-26 17:44 | 45.27865 | 14.50617 | 1533 ft | 135 kts | 142° |
| 2026-04-26 17:45 | 45.27116 | 14.51398 | 1360 ft | 133 kts | 141° |
| 2026-04-26 17:45 | 45.26378 | 14.52168 | 1182 ft | 131 kts | 141° |
| 2026-04-26 17:45 | 45.25640 | 14.52938 | 1019 ft | 132 kts | 141° |
| 2026-04-26 17:45 | 45.24897 | 14.53712 | 853 ft | 133 kts | 141° |
| 2026-04-26 17:46 | 45.24150 | 14.54501 | 672 ft | 134 kts | 142° |
| 2026-04-26 17:46 | 45.23393 | 14.55292 | 520 ft | 136 kts | 142° |
| 2026-04-26 17:46 | 45.22630 | 14.56081 | 311 ft | 134 kts | 144° |
| 2026-04-26 17:46 | 45.21998 | 14.56739 | 287 ft | 78 kts | 144° |
| 2026-04-26 17:47 | 45.21705 | 14.57039 | 287 ft | 37 kts | 144° |
| 2026-04-26 17:47 | 45.21639 | 14.57107 | 286 ft | 24 kts | 144° |
| 2026-04-26 17:47 | 45.21669 | 14.57195 | 288 ft | 8 kts | 5° |
| 2026-04-26 17:47 | 45.21725 | 14.57198 | 288 ft | 9 kts | 1° |